createdAt,value
2018-05-15T00:00:45.699Z,15.75
2018-05-15T00:03:14.736Z,15.70
2018-05-15T00:05:43.078Z,15.50
2018-05-15T00:08:12.228Z,15.35
2018-05-15T00:10:40.677Z,15.27
2018-05-15T00:13:09.008Z,15.21
2018-05-15T00:15:37.334Z,15.25
2018-05-15T00:18:05.670Z,15.21
2018-05-15T00:20:34.743Z,15.19
2018-05-15T00:23:03.084Z,15.51
2018-05-15T00:25:31.532Z,15.45
2018-05-15T00:28:00.632Z,15.59
2018-05-15T00:30:29.675Z,15.80
2018-05-15T00:32:57.965Z,15.84
2018-05-15T00:35:26.288Z,15.46
2018-05-15T00:37:54.712Z,15.54
2018-05-15T00:40:23.004Z,15.51
2018-05-15T00:42:51.341Z,15.31
2018-05-15T00:45:19.658Z,15.39
2018-05-15T00:47:47.972Z,15.64
2018-05-15T00:50:17.064Z,15.56
2018-05-15T00:52:45.370Z,15.26
2018-05-15T00:55:31.362Z,15.41
2018-05-15T00:57:59.643Z,15.07
2018-05-15T01:00:27.941Z,14.97
2018-05-15T01:02:56.232Z,14.97
2018-05-15T01:05:24.559Z,14.77
2018-05-15T01:07:53.631Z,14.83
2018-05-15T01:12:57.212Z,14.57
2018-05-15T01:15:25.493Z,14.94
2018-05-15T01:17:53.802Z,14.97
2018-05-15T01:20:22.887Z,15.19
2018-05-15T01:22:51.178Z,14.90
2018-05-15T01:25:19.497Z,14.67
2018-05-15T01:27:47.800Z,14.66
2018-05-15T01:30:16.091Z,14.49
2018-05-15T01:32:44.411Z,14.35
2018-05-15T01:35:12.728Z,14.32
2018-05-15T01:37:41.073Z,14.62
2018-05-15T01:40:09.361Z,14.73
2018-05-15T01:42:37.679Z,14.88
2018-05-15T01:45:05.999Z,14.77
2018-05-15T01:47:34.311Z,14.77
2018-05-15T01:50:02.677Z,14.53
2018-05-15T01:52:30.974Z,14.50
2018-05-15T01:54:59.263Z,14.54
2018-05-15T01:57:27.821Z,14.41
2018-05-15T01:59:56.117Z,14.46
2018-05-15T02:02:24.379Z,14.44
2018-05-15T02:04:52.728Z,14.39
2018-05-15T02:07:21.780Z,14.42
2018-05-15T02:09:50.076Z,14.36
2018-05-15T02:12:18.358Z,14.39
2018-05-15T02:14:47.414Z,14.29
2018-05-15T02:17:15.730Z,14.19
2018-05-15T02:19:44.763Z,14.08
2018-05-15T02:22:13.073Z,14.02
2018-05-15T02:24:41.395Z,13.95
2018-05-15T02:27:10.437Z,13.97
2018-05-15T02:29:38.743Z,13.86
2018-05-15T02:32:07.296Z,13.82
2018-05-15T02:34:35.634Z,13.85
2018-05-15T02:37:04.698Z,13.78
2018-05-15T02:39:33.000Z,13.78
2018-05-15T02:42:02.073Z,13.82
2018-05-15T02:44:30.361Z,13.74
2018-05-15T02:46:59.564Z,13.87
2018-05-15T02:49:28.620Z,13.76
2018-05-15T02:51:56.930Z,13.79
2018-05-15T02:54:26.005Z,13.94
2018-05-15T02:56:54.281Z,14.00
2018-05-15T02:59:22.633Z,13.98
2018-05-15T03:01:50.943Z,14.05
2018-05-15T03:04:19.337Z,13.82
2018-05-15T03:06:48.391Z,13.70
2018-05-15T03:09:17.487Z,13.63
2018-05-15T03:11:45.804Z,13.56
2018-05-15T03:14:14.096Z,13.60
2018-05-15T03:16:43.162Z,13.49
2018-05-15T03:19:11.511Z,13.66
2018-05-15T03:21:39.789Z,13.48
2018-05-15T03:24:08.102Z,13.47
2018-05-15T03:26:36.403Z,13.76
2018-05-15T03:29:05.473Z,13.69
2018-05-15T03:31:33.760Z,13.92
2018-05-15T03:34:02.816Z,13.98
2018-05-15T03:36:31.109Z,13.92
2018-05-15T03:38:59.381Z,13.98
2018-05-15T03:41:28.482Z,13.99
2018-05-15T03:43:56.752Z,14.06
2018-05-15T03:46:25.075Z,13.86
2018-05-15T03:48:54.138Z,13.98
2018-05-15T03:51:22.438Z,13.94
2018-05-15T03:53:51.515Z,14.05
2018-05-15T03:56:19.793Z,13.97
2018-05-15T03:58:48.105Z,14.11
2018-05-15T04:01:34.199Z,14.04
2018-05-15T04:04:20.288Z,14.17
2018-05-15T04:07:06.242Z,14.24
2018-05-15T04:09:34.530Z,14.42
2018-05-15T04:12:03.097Z,14.48
2018-05-15T04:14:31.355Z,14.72
2018-05-15T04:16:59.708Z,15.55
2018-05-15T04:19:28.013Z,17.13
2018-05-15T04:21:56.338Z,18.20
2018-05-15T04:24:25.458Z,19.81
2018-05-15T04:26:53.698Z,18.46
2018-05-15T04:29:21.999Z,19.41
2018-05-15T04:31:51.045Z,19.86
2018-05-15T04:34:19.294Z,20.48
2018-05-15T04:36:47.652Z,20.49
2018-05-15T04:39:16.706Z,20.77
2018-05-15T04:41:45.066Z,20.84
2018-05-15T04:44:13.349Z,20.94
2018-05-15T04:46:41.677Z,21.22
2018-05-15T04:49:10.754Z,21.34
2018-05-15T04:51:39.177Z,20.73
2018-05-15T04:54:07.496Z,22.19
2018-05-15T04:56:35.809Z,22.11
2018-05-15T04:59:04.865Z,21.81
2018-05-15T05:01:33.152Z,21.51
2018-05-15T05:04:01.480Z,22.55
2018-05-15T05:06:29.778Z,24.20
2018-05-15T05:08:58.044Z,22.23
2018-05-15T05:11:26.350Z,22.61
2018-05-15T05:13:54.640Z,23.49
2018-05-15T05:16:22.958Z,23.43
2018-05-15T05:18:51.261Z,23.69
2018-05-15T05:21:19.515Z,23.77
2018-05-15T05:23:47.841Z,24.39
2018-05-15T05:26:16.127Z,21.95
2018-05-15T05:28:44.438Z,22.04
2018-05-15T05:31:13.509Z,23.69
2018-05-15T05:33:41.784Z,23.71
2018-05-15T05:36:10.075Z,24.28
2018-05-15T05:38:39.166Z,24.65
2018-05-15T05:41:08.246Z,23.38
2018-05-15T05:43:36.557Z,25.85
2018-05-15T05:46:04.875Z,23.18
2018-05-15T05:48:33.182Z,28.04
2018-05-15T05:51:01.526Z,26.91
2018-05-15T05:53:29.828Z,25.82
2018-05-15T05:55:58.141Z,25.03
2018-05-15T05:58:27.208Z,25.76
2018-05-15T06:00:55.497Z,23.33
2018-05-15T06:03:24.562Z,25.20
2018-05-15T06:05:52.856Z,23.33
2018-05-15T06:08:21.161Z,23.64
2018-05-15T06:10:50.211Z,23.91
2018-05-15T06:13:18.506Z,26.75
2018-05-15T06:15:46.875Z,27.89
2018-05-15T06:18:15.188Z,27.72
2018-05-15T06:20:44.321Z,25.97
2018-05-15T06:23:12.598Z,24.30
2018-05-15T06:25:40.914Z,25.17
2018-05-15T06:28:09.528Z,28.28
2018-05-15T06:30:38.588Z,24.46
2018-05-15T06:33:06.873Z,23.27
2018-05-15T06:35:35.301Z,25.27
2018-05-15T06:38:03.612Z,25.66
2018-05-15T06:40:31.924Z,24.93
2018-05-15T06:43:00.989Z,25.17
2018-05-15T06:45:29.280Z,26.62
2018-05-15T06:47:57.684Z,25.78
2018-05-15T06:50:26.749Z,25.66
2018-05-15T06:52:55.110Z,26.86
2018-05-15T06:55:23.402Z,24.68
2018-05-15T06:57:51.681Z,24.03
2018-05-15T07:00:19.998Z,24.78
2018-05-15T07:02:49.247Z,27.79
2018-05-15T07:05:17.573Z,28.81
2018-05-15T07:07:46.697Z,26.66
2018-05-15T07:10:15.795Z,24.60
2018-05-15T07:12:44.107Z,24.01
2018-05-15T07:15:12.425Z,23.54
2018-05-15T07:17:41.476Z,26.78
2018-05-15T07:20:09.781Z,26.89
2018-05-15T07:22:38.832Z,26.46
2018-05-15T07:25:07.921Z,26.28
2018-05-15T07:27:36.242Z,27.22
2018-05-15T07:30:04.552Z,28.94
2018-05-15T07:32:32.904Z,26.06
2018-05-15T07:35:01.334Z,27.76
2018-05-15T07:37:29.728Z,24.70
2018-05-15T07:40:00.736Z,26.98
2018-05-15T07:42:29.020Z,25.07
2018-05-15T07:44:57.357Z,24.48
2018-05-15T07:47:25.641Z,23.79
2018-05-15T07:49:54.754Z,24.23
2018-05-15T07:52:23.787Z,27.35
2018-05-15T07:54:52.081Z,25.67
2018-05-15T07:57:20.404Z,23.75
2018-05-15T07:59:49.488Z,25.46
2018-05-15T08:02:18.559Z,25.26
2018-05-15T08:04:46.925Z,26.61
2018-05-15T08:07:15.236Z,24.71
2018-05-15T08:09:44.339Z,23.40
2018-05-15T08:12:13.455Z,22.55
2018-05-15T08:14:41.763Z,22.61
2018-05-15T08:17:10.079Z,24.26
2018-05-15T08:19:39.136Z,22.28
2018-05-15T08:22:07.422Z,23.15
2018-05-15T08:24:35.749Z,22.81
2018-05-15T08:27:04.818Z,21.42
2018-05-15T08:29:33.101Z,22.13
2018-05-15T08:32:02.172Z,22.90
2018-05-15T08:34:30.456Z,22.55
2018-05-15T08:36:58.771Z,21.20
2018-05-15T08:39:27.067Z,21.81
2018-05-15T08:41:55.391Z,21.39
2018-05-15T08:44:23.700Z,21.53
2018-05-15T08:46:52.759Z,21.80
2018-05-15T08:49:21.068Z,20.98
2018-05-15T08:51:50.129Z,21.06
2018-05-15T08:54:18.405Z,21.19
2018-05-15T08:56:46.694Z,21.09
2018-05-15T08:59:15.020Z,21.53
2018-05-15T09:01:43.336Z,21.18
2018-05-15T09:04:11.673Z,21.62
2018-05-15T09:06:39.953Z,21.64
2018-05-15T09:09:08.275Z,22.88
2018-05-15T09:11:36.593Z,22.41
2018-05-15T09:14:05.020Z,22.78
2018-05-15T09:16:33.357Z,23.63
2018-05-15T09:19:01.733Z,22.86
2018-05-15T09:21:30.800Z,22.61
2018-05-15T09:23:59.218Z,23.85
2018-05-15T09:26:27.616Z,23.32
2018-05-15T09:28:55.931Z,22.82
2018-05-15T09:31:24.193Z,23.61
2018-05-15T09:33:52.493Z,23.32
2018-05-15T09:36:20.837Z,24.56
2018-05-15T09:38:49.121Z,23.00
2018-05-15T09:41:17.404Z,22.83
2018-05-15T09:44:00.516Z,23.44
2018-05-15T09:46:28.802Z,26.09
2018-05-15T09:48:57.123Z,25.08
2018-05-15T09:51:25.425Z,24.18
2018-05-15T09:53:53.749Z,23.48
2018-05-15T09:56:22.064Z,24.30
2018-05-15T09:58:51.117Z,24.32
2018-05-15T10:01:19.435Z,24.35
2018-05-15T10:03:48.496Z,24.48
2018-05-15T10:06:16.808Z,25.77
2018-05-15T10:08:45.864Z,24.20
2018-05-15T10:11:14.949Z,23.03
2018-05-15T10:13:43.198Z,23.97
2018-05-15T10:16:11.817Z,24.24
2018-05-15T10:18:40.136Z,24.92
2018-05-15T10:21:09.448Z,24.63
2018-05-15T10:23:37.779Z,23.83
2018-05-15T10:26:06.100Z,24.43
2018-05-15T10:28:34.433Z,24.11
2018-05-15T10:31:02.747Z,23.81
2018-05-15T10:33:31.836Z,23.84
2018-05-15T10:36:00.902Z,23.45
2018-05-15T10:38:29.300Z,23.31
2018-05-15T10:40:57.607Z,23.88
2018-05-15T10:43:25.917Z,24.18
2018-05-15T10:45:54.199Z,24.11
2018-05-15T10:48:22.540Z,23.98
2018-05-15T10:50:51.611Z,24.79
2018-05-15T10:53:19.906Z,23.65
2018-05-15T10:55:48.966Z,23.82
2018-05-15T10:58:17.256Z,24.79
2018-05-15T11:00:46.304Z,23.41
2018-05-15T11:03:14.714Z,23.56
2018-05-15T11:05:43.049Z,24.39
2018-05-15T11:08:11.360Z,23.77
2018-05-15T11:10:39.643Z,24.36
2018-05-15T11:13:07.959Z,23.03
2018-05-15T11:15:37.010Z,23.10
2018-05-15T11:18:23.064Z,22.85
2018-05-15T11:21:09.099Z,22.38
2018-05-15T11:23:55.214Z,22.08
2018-05-15T11:26:23.502Z,22.61
2018-05-15T11:28:51.807Z,23.06
2018-05-15T11:31:20.134Z,23.29
2018-05-15T11:33:48.488Z,23.28
2018-05-15T11:36:17.096Z,22.90
2018-05-15T11:38:45.401Z,23.53
2018-05-15T11:41:14.451Z,23.36
2018-05-15T11:43:43.496Z,22.66
2018-05-15T11:46:12.569Z,22.75
2018-05-15T11:48:41.599Z,23.31
2018-05-15T11:51:09.860Z,23.24
2018-05-15T11:53:37.493Z,22.84
2018-05-15T11:56:05.789Z,23.22
2018-05-15T11:58:34.840Z,23.48
2018-05-15T12:01:03.183Z,23.21
2018-05-15T12:03:32.219Z,23.92
2018-05-15T12:06:00.517Z,23.35
2018-05-15T12:08:28.843Z,23.15
2018-05-15T12:10:57.900Z,23.86
2018-05-15T12:13:26.240Z,23.94
2018-05-15T12:15:54.603Z,24.19
2018-05-15T12:18:22.993Z,24.02
2018-05-15T12:20:51.254Z,24.18
2018-05-15T12:23:19.759Z,23.18
2018-05-15T12:25:48.093Z,24.28
2018-05-15T12:28:17.326Z,24.17
2018-05-15T12:30:45.630Z,23.71
2018-05-15T12:33:13.957Z,23.60
2018-05-15T12:35:43.112Z,23.76
2018-05-15T12:38:11.433Z,23.89
2018-05-15T12:40:40.481Z,23.91
2018-05-15T12:43:08.798Z,23.75
2018-05-15T12:45:37.906Z,23.35
2018-05-15T12:48:06.237Z,23.36
2018-05-15T12:50:34.505Z,23.84
2018-05-15T12:53:02.858Z,24.17
2018-05-15T12:55:31.162Z,23.56
2018-05-15T12:57:59.456Z,24.15
2018-05-15T13:00:27.738Z,23.55
2018-05-15T13:02:56.063Z,23.94
2018-05-15T13:05:24.694Z,24.11
2018-05-15T13:07:53.004Z,24.08
2018-05-15T13:10:22.060Z,24.62
2018-05-15T13:12:50.410Z,23.62
2018-05-15T13:15:18.696Z,24.35
2018-05-15T13:17:46.986Z,23.95
2018-05-15T13:20:15.584Z,24.28
2018-05-15T13:22:43.873Z,23.87
2018-05-15T13:25:12.202Z,24.21
2018-05-15T13:27:40.472Z,24.16
2018-05-15T13:30:08.776Z,24.03
2018-05-15T13:32:37.934Z,24.10
2018-05-15T13:35:06.253Z,24.31
2018-05-15T13:37:34.572Z,24.79
2018-05-15T13:40:03.735Z,24.36
2018-05-15T13:42:32.042Z,24.61
2018-05-15T13:45:01.112Z,23.89
2018-05-15T13:47:29.407Z,24.00
2018-05-15T13:49:57.708Z,23.97
2018-05-15T13:52:26.086Z,23.41
2018-05-15T13:54:55.144Z,23.68
2018-05-15T13:57:23.491Z,23.54
2018-05-15T13:59:51.794Z,23.44
2018-05-15T14:02:20.130Z,23.53
2018-05-15T14:04:48.441Z,23.86
2018-05-15T14:07:16.750Z,23.81
2018-05-15T14:09:45.255Z,23.76
2018-05-15T14:12:14.302Z,24.08
2018-05-15T14:14:42.582Z,23.99
2018-05-15T14:17:10.888Z,24.11
2018-05-15T14:19:39.964Z,23.95
2018-05-15T14:22:08.298Z,23.52
2018-05-15T14:24:36.648Z,23.64
2018-05-15T14:27:04.931Z,23.46
2018-05-15T14:29:33.984Z,23.52
2018-05-15T14:32:02.292Z,23.75
2018-05-15T14:34:31.826Z,24.10
2018-05-15T14:37:00.100Z,24.47
2018-05-15T14:39:28.391Z,24.66
2018-05-15T14:42:14.604Z,24.01
2018-05-15T14:44:42.890Z,24.01
2018-05-15T14:47:11.326Z,23.88
2018-05-15T14:49:39.632Z,24.20
2018-05-15T14:52:07.904Z,24.20
2018-05-15T14:54:36.242Z,24.34
2018-05-15T14:57:05.326Z,23.94
2018-05-15T14:59:33.901Z,24.02
2018-05-15T15:02:02.177Z,23.79
2018-05-15T15:04:30.479Z,24.06
2018-05-15T15:06:59.512Z,23.60
2018-05-15T15:09:27.864Z,24.12
2018-05-15T15:11:56.173Z,24.02
2018-05-15T15:14:24.475Z,24.22
2018-05-15T15:16:52.835Z,24.20
2018-05-15T15:19:21.125Z,24.09
2018-05-15T15:21:49.453Z,23.75
2018-05-15T15:24:17.768Z,23.79
2018-05-15T15:26:46.090Z,23.80
2018-05-15T15:29:15.183Z,23.87
2018-05-15T15:31:43.531Z,23.68
2018-05-15T15:34:11.868Z,23.52
2018-05-15T15:36:40.172Z,23.75
2018-05-15T15:39:08.520Z,23.50
2018-05-15T15:41:37.037Z,23.94
2018-05-15T15:44:05.341Z,23.99
2018-05-15T15:46:33.671Z,23.75
2018-05-15T15:49:02.041Z,24.08
2018-05-15T15:51:30.387Z,24.06
2018-05-15T15:53:58.756Z,23.96
2018-05-15T15:56:27.057Z,23.86
2018-05-15T15:58:56.154Z,23.71
2018-05-15T16:01:25.217Z,24.24
2018-05-15T16:03:53.544Z,23.80
2018-05-15T16:06:21.907Z,23.91
2018-05-15T16:08:50.112Z,23.98
2018-05-15T16:11:18.401Z,23.91
2018-05-15T16:13:46.695Z,23.89
2018-05-15T16:16:15.009Z,23.67
2018-05-15T16:18:44.140Z,23.60
2018-05-15T16:21:12.484Z,23.77
2018-05-15T16:23:41.809Z,23.92
2018-05-15T16:26:10.125Z,23.56
2018-05-15T16:28:38.547Z,23.48
2018-05-15T16:31:06.991Z,23.47
2018-05-15T16:33:35.310Z,23.85
2018-05-15T16:36:04.405Z,23.42
2018-05-15T16:38:33.523Z,23.42
2018-05-15T16:41:01.833Z,23.29
2018-05-15T16:43:30.159Z,23.27
2018-05-15T16:45:58.422Z,23.40
2018-05-15T16:48:26.734Z,23.15
2018-05-15T16:50:55.076Z,23.28
2018-05-15T16:53:23.380Z,23.05
2018-05-15T16:55:51.706Z,22.99
2018-05-15T16:58:20.079Z,23.11
2018-05-15T17:00:48.372Z,22.87
2018-05-15T17:03:16.658Z,22.89
2018-05-15T17:05:44.970Z,22.70
2018-05-15T17:08:13.329Z,22.85
2018-05-15T17:10:41.622Z,22.80
2018-05-15T17:13:10.742Z,22.66
2018-05-15T17:15:38.999Z,22.70
2018-05-15T17:18:07.297Z,22.56
2018-05-15T17:20:35.620Z,22.55
2018-05-15T17:23:04.696Z,22.60
2018-05-15T17:25:33.038Z,22.55
2018-05-15T17:28:02.083Z,22.51
2018-05-15T17:30:30.404Z,22.50
2018-05-15T17:32:58.769Z,22.51
2018-05-15T17:35:27.056Z,22.58
2018-05-15T17:37:55.389Z,22.55
2018-05-15T17:40:23.685Z,22.41
2018-05-15T17:42:52.782Z,22.42
2018-05-15T17:45:21.119Z,22.44
2018-05-15T17:47:49.461Z,22.43
2018-05-15T17:50:17.795Z,22.38
2018-05-15T17:52:46.404Z,22.38
2018-05-15T17:55:15.475Z,22.39
2018-05-15T17:57:43.771Z,22.20
2018-05-15T18:00:12.097Z,22.16
2018-05-15T18:02:40.421Z,22.17
2018-05-15T18:05:08.724Z,22.09
2018-05-15T18:07:37.785Z,22.09
2018-05-15T18:10:06.085Z,22.12
2018-05-15T18:12:35.166Z,22.06
2018-05-15T18:15:03.500Z,22.12
2018-05-15T18:17:31.785Z,22.13
2018-05-15T18:20:00.094Z,22.06
2018-05-15T18:22:28.404Z,22.03
2018-05-15T18:24:56.745Z,21.85
2018-05-15T18:27:25.044Z,21.90
2018-05-15T18:29:53.364Z,21.83
2018-05-15T18:32:21.683Z,21.82
2018-05-15T18:34:50.221Z,21.76
2018-05-15T18:37:18.640Z,21.71
2018-05-15T18:39:46.961Z,21.70
2018-05-15T18:42:16.099Z,21.66
2018-05-15T18:44:44.438Z,21.63
2018-05-15T18:47:13.545Z,21.59
2018-05-15T18:49:41.925Z,21.50
2018-05-15T18:52:10.207Z,21.45
2018-05-15T18:54:38.501Z,21.41
2018-05-15T18:57:06.817Z,21.37
2018-05-15T18:59:35.145Z,21.27
2018-05-15T19:02:03.452Z,21.27
2018-05-15T19:04:32.522Z,21.11
2018-05-15T19:07:00.838Z,21.12
2018-05-15T19:09:29.112Z,21.02
2018-05-15T19:11:57.442Z,21.01
2018-05-15T19:14:25.767Z,20.97
2018-05-15T19:16:54.373Z,20.95
2018-05-15T19:19:23.639Z,20.91
2018-05-15T19:21:52.660Z,20.86
2018-05-15T19:24:21.024Z,20.80
2018-05-15T19:26:49.468Z,20.73
2018-05-15T19:29:17.986Z,20.69
2018-05-15T19:31:56.307Z,20.66
2018-05-15T19:34:25.390Z,20.68
2018-05-15T19:36:59.195Z,20.64
2018-05-15T19:39:33.526Z,20.63
2018-05-15T19:42:01.858Z,20.66
2018-05-15T19:44:30.344Z,20.74
2018-05-15T19:46:58.820Z,20.73
2018-05-15T19:49:27.251Z,20.79
2018-05-15T19:51:55.651Z,20.78
2018-05-15T19:54:24.034Z,20.80
2018-05-15T19:56:52.453Z,20.34
2018-05-15T19:59:20.838Z,19.96
2018-05-15T20:01:49.333Z,19.48
2018-05-15T20:04:18.384Z,19.42
2018-05-15T20:06:46.733Z,19.24
2018-05-15T20:09:15.030Z,19.20
2018-05-15T20:11:43.368Z,19.09
2018-05-15T20:14:11.737Z,19.08
2018-05-15T20:16:40.120Z,19.10
2018-05-15T20:19:08.448Z,19.15
2018-05-15T20:21:37.531Z,19.05
2018-05-15T20:24:06.591Z,18.96
2018-05-15T20:26:34.914Z,18.86
2018-05-15T20:29:03.428Z,18.89
2018-05-15T20:31:31.667Z,18.88
2018-05-15T20:34:00.724Z,18.83
2018-05-15T20:36:29.077Z,18.82
2018-05-15T20:38:57.360Z,18.81
2018-05-15T20:41:25.657Z,18.76
2018-05-15T20:43:54.011Z,18.80
2018-05-15T20:46:22.363Z,18.78
2018-05-15T20:48:50.703Z,18.74
2018-05-15T20:51:19.000Z,18.77
2018-05-15T20:53:48.116Z,18.75
2018-05-15T20:56:16.432Z,18.75
2018-05-15T20:58:44.762Z,18.75
2018-05-15T21:01:13.813Z,18.75
2018-05-15T21:03:43.105Z,18.76
2018-05-15T21:06:12.195Z,18.78
2018-05-15T21:08:40.530Z,18.79
2018-05-15T21:11:09.638Z,18.74
2018-05-15T21:13:38.676Z,18.74
2018-05-15T21:16:07.003Z,18.72
2018-05-15T21:18:36.165Z,18.76
2018-05-15T21:21:04.927Z,18.72
2018-05-15T21:23:33.240Z,18.73
2018-05-15T21:26:01.598Z,18.73
2018-05-15T21:28:29.969Z,18.67
2018-05-15T21:30:58.302Z,18.61
2018-05-15T21:33:27.389Z,18.56
2018-05-15T21:35:56.452Z,18.53
2018-05-15T21:38:24.736Z,18.41
2018-05-15T21:40:53.047Z,18.33
2018-05-15T21:43:22.097Z,18.27
2018-05-15T21:45:50.463Z,18.17
2018-05-15T21:48:18.746Z,17.99
2018-05-15T21:50:47.045Z,17.78
2018-05-15T21:53:15.343Z,17.56
2018-05-15T21:55:44.425Z,17.47
2018-05-15T21:58:12.727Z,17.32
2018-05-15T22:00:41.797Z,17.14
2018-05-15T22:03:10.132Z,16.97
2018-05-15T22:05:38.453Z,16.80
2018-05-15T22:08:06.802Z,16.72
2018-05-15T22:10:35.136Z,16.65
2018-05-15T22:13:21.959Z,16.50
2018-05-15T22:16:07.899Z,16.45
2018-05-15T22:18:54.734Z,16.46
2018-05-15T22:21:40.767Z,16.40
2018-05-15T22:24:09.072Z,16.36
2018-05-15T22:26:37.522Z,16.37
2018-05-15T22:29:05.740Z,16.33
2018-05-15T22:31:34.040Z,16.28
2018-05-15T22:34:03.220Z,16.22
2018-05-15T22:36:31.519Z,16.04
2018-05-15T22:39:00.580Z,15.91
2018-05-15T22:41:29.088Z,15.85
2018-05-15T22:43:57.408Z,15.56
2018-05-15T22:46:25.710Z,15.36
2018-05-15T22:48:54.076Z,15.30
2018-05-15T22:51:22.380Z,15.27
2018-05-15T22:53:50.680Z,15.27
2018-05-15T22:56:18.995Z,15.04
2018-05-15T22:58:47.286Z,15.02
2018-05-15T23:01:15.714Z,15.00
2018-05-15T23:03:44.010Z,14.95
2018-05-15T23:06:13.058Z,14.89
2018-05-15T23:08:41.374Z,14.82
2018-05-15T23:11:10.503Z,14.85
2018-05-15T23:13:38.811Z,14.82
2018-05-15T23:16:07.178Z,14.79
2018-05-15T23:18:35.452Z,14.79
2018-05-15T23:21:03.761Z,14.71
2018-05-15T23:23:32.093Z,14.74
2018-05-15T23:26:00.388Z,14.74
2018-05-15T23:28:28.709Z,14.66
2018-05-15T23:30:57.000Z,14.69
2018-05-15T23:33:26.057Z,14.55
2018-05-15T23:35:54.335Z,14.51
2018-05-15T23:38:22.595Z,14.46
2018-05-15T23:40:50.914Z,14.46
2018-05-15T23:43:19.957Z,14.45
2018-05-15T23:45:48.250Z,14.39
2018-05-15T23:48:16.524Z,14.42
2018-05-15T23:50:44.817Z,14.37
2018-05-15T23:53:13.111Z,14.41
2018-05-15T23:55:42.153Z,14.41
2018-05-15T23:58:10.436Z,14.32
